createdAt,value
2019-04-22T00:00:16.292Z,10.09
2019-04-22T00:01:22.762Z,10.02
2019-04-22T00:02:40.101Z,10.07
2019-04-22T00:03:44.815Z,9.96
2019-04-22T00:04:17.804Z,10.10
2019-04-22T00:05:34.405Z,10.07
2019-04-22T00:07:07.018Z,10.06
2019-04-22T00:07:36.127Z,9.95
2019-04-22T00:08:30.973Z,9.96
2019-04-22T00:09:42.169Z,9.93
2019-04-22T00:10:40.711Z,9.91
2019-04-22T00:11:59.938Z,9.85
2019-04-22T00:12:47.258Z,9.73
2019-04-22T00:13:49.237Z,9.73
2019-04-22T00:14:35.093Z,9.73
2019-04-22T00:15:32.521Z,9.68
2019-04-22T00:17:07.086Z,9.77
2019-04-22T00:18:07.515Z,9.77
2019-04-22T00:18:56.482Z,9.86
2019-04-22T00:19:44.936Z,9.74
2019-04-22T00:20:42.324Z,9.75
2019-04-22T00:21:42.185Z,9.71
2019-04-22T00:22:38.629Z,9.73
2019-04-22T00:23:45.230Z,9.73
2019-04-22T00:24:38.964Z,9.71
2019-04-22T00:25:45.923Z,9.70
2019-04-22T00:26:45.592Z,9.63
2019-04-22T00:28:02.742Z,9.67
2019-04-22T00:28:51.926Z,9.62
2019-04-22T00:30:40.666Z,9.62
2019-04-22T00:31:40.506Z,9.55
2019-04-22T00:33:03.199Z,9.53
2019-04-22T00:34:05.155Z,9.53
2019-04-22T00:35:54.802Z,9.59
2019-04-22T00:37:02.335Z,9.60
2019-04-22T00:37:53.256Z,9.62
2019-04-22T00:38:46.809Z,9.58
2019-04-22T00:39:47.607Z,9.48
2019-04-22T00:41:05.787Z,9.53
2019-04-22T00:41:56.951Z,9.55
2019-04-22T00:42:41.571Z,9.50
2019-04-22T00:43:49.251Z,9.49
2019-04-22T00:45:11.678Z,9.49
2019-04-22T00:45:44.454Z,9.52
2019-04-22T00:46:46.231Z,9.48
2019-04-22T00:47:46.175Z,9.40
2019-04-22T00:48:57.569Z,9.38
2019-04-22T00:50:55.179Z,9.31
2019-04-22T00:51:52.024Z,9.23
2019-04-22T00:52:41.200Z,9.24
2019-04-22T00:53:47.994Z,9.27
2019-04-22T00:54:48.898Z,9.34
2019-04-22T00:55:48.287Z,9.26
2019-04-22T00:56:45.524Z,9.31
2019-04-22T00:57:52.126Z,9.41
2019-04-22T00:59:06.331Z,9.30
2019-04-22T00:59:45.821Z,9.34
2019-04-22T01:00:55.673Z,9.32
2019-04-22T01:01:46.727Z,9.26
2019-04-22T01:02:49.781Z,9.22
2019-04-22T01:03:52.796Z,9.24
2019-04-22T01:04:49.436Z,9.10
2019-04-22T01:05:49.305Z,9.13
2019-04-22T01:06:49.708Z,9.15
2019-04-22T01:07:49.564Z,9.08
2019-04-22T01:08:53.802Z,9.13
2019-04-22T01:09:53.647Z,9.08
2019-04-22T01:10:54.023Z,9.13
2019-04-22T01:11:48.547Z,9.17
2019-04-22T01:12:44.019Z,9.13
2019-04-22T01:13:44.949Z,9.15
2019-04-22T01:14:49.617Z,9.23
2019-04-22T01:15:47.837Z,9.13
2019-04-22T01:16:50.451Z,9.16
2019-04-22T01:17:50.801Z,9.23
2019-04-22T01:19:06.539Z,9.20
2019-04-22T01:19:56.228Z,9.10
2019-04-22T01:21:07.264Z,9.13
2019-04-22T01:21:44.831Z,9.06
2019-04-22T01:22:48.972Z,9.12
2019-04-22T01:23:48.053Z,9.12
2019-04-22T01:24:46.728Z,9.10
2019-04-22T01:25:41.707Z,9.12
2019-04-22T01:26:38.917Z,9.15
2019-04-22T01:27:43.374Z,9.10
2019-04-22T01:28:39.979Z,8.98
2019-04-22T01:29:38.610Z,8.97
2019-04-22T01:30:36.219Z,8.98
2019-04-22T01:31:28.501Z,8.91
2019-04-22T01:32:32.234Z,8.94
2019-04-22T01:33:31.097Z,8.93
2019-04-22T01:34:40.904Z,8.89
2019-04-22T01:35:36.090Z,8.93
2019-04-22T01:36:45.678Z,8.93
2019-04-22T01:38:06.447Z,8.93
2019-04-22T01:38:51.297Z,8.94
2019-04-22T01:39:57.492Z,8.96
2019-04-22T01:40:56.785Z,8.85
2019-04-22T01:41:55.035Z,8.82
2019-04-22T01:42:56.244Z,8.79
2019-04-22T01:44:00.784Z,8.82
2019-04-22T01:45:12.332Z,8.85
2019-04-22T01:45:53.346Z,8.91
2019-04-22T01:46:50.732Z,8.80
2019-04-22T01:47:49.161Z,8.79
2019-04-22T01:48:57.779Z,8.82
2019-04-22T01:49:52.663Z,8.75
2019-04-22T01:50:49.678Z,8.76
2019-04-22T01:51:58.594Z,8.75
2019-04-22T01:52:57.077Z,8.58
2019-04-22T01:54:00.526Z,8.64
2019-04-22T01:55:10.382Z,8.52
2019-04-22T01:55:55.526Z,8.63
2019-04-22T01:56:59.955Z,8.52
2019-04-22T01:57:47.691Z,8.58
2019-04-22T01:58:48.222Z,8.49
2019-04-22T01:59:45.747Z,8.50
2019-04-22T02:00:56.234Z,8.37
2019-04-22T02:02:57.520Z,8.37
2019-04-22T02:04:21.528Z,8.43
2019-04-22T02:05:21.665Z,8.36
2019-04-22T02:06:13.687Z,8.46
2019-04-22T02:07:16.825Z,8.42
2019-04-22T02:07:56.180Z,8.50
2019-04-22T02:09:24.249Z,8.50
2019-04-22T02:09:56.741Z,8.42
2019-04-22T02:10:54.919Z,8.49
2019-04-22T02:13:29.920Z,8.42
2019-04-22T02:14:34.102Z,8.43
2019-04-22T02:15:23.778Z,8.42
2019-04-22T02:16:27.339Z,8.40
2019-04-22T02:17:31.519Z,8.40
2019-04-22T02:18:32.913Z,8.39
2019-04-22T02:19:30.759Z,8.37
2019-04-22T02:20:31.345Z,8.55
2019-04-22T02:21:21.535Z,8.57
2019-04-22T02:22:47.600Z,8.49
2019-04-22T02:23:47.070Z,8.42
2019-04-22T02:24:33.925Z,8.49
2019-04-22T02:25:32.786Z,8.40
2019-04-22T02:26:51.958Z,8.36
2019-04-22T02:27:32.615Z,8.34
2019-04-22T02:28:38.442Z,8.29
2019-04-22T02:29:29.810Z,8.25
2019-04-22T02:31:38.052Z,8.24
2019-04-22T02:34:39.725Z,8.25
2019-04-22T02:35:52.264Z,8.31
2019-04-22T02:36:50.913Z,8.29
2019-04-22T02:37:54.380Z,8.28
2019-04-22T02:39:38.779Z,8.29
2019-04-22T02:40:53.019Z,8.25
2019-04-22T02:45:25.943Z,8.28
2019-04-22T02:48:31.456Z,8.20
2019-04-22T02:49:18.824Z,8.27
2019-04-22T02:50:05.189Z,8.22
2019-04-22T02:51:26.245Z,8.28
2019-04-22T02:52:11.610Z,8.12
2019-04-22T02:53:17.604Z,8.29
2019-04-22T02:54:36.537Z,8.24
2019-04-22T02:55:21.041Z,8.29
2019-04-22T02:56:25.124Z,8.14
2019-04-22T02:57:30.199Z,8.14
2019-04-22T02:58:16.476Z,8.14
2019-04-22T03:03:31.145Z,8.07
2019-04-22T03:04:20.640Z,8.00
2019-04-22T03:05:27.734Z,8.00
2019-04-22T03:07:09.079Z,8.07
2019-04-22T03:08:25.314Z,8.07
2019-04-22T03:09:18.073Z,8.10
2019-04-22T03:10:22.714Z,8.12
2019-04-22T03:11:18.973Z,8.04
2019-04-22T03:12:16.419Z,8.00
2019-04-22T03:13:21.402Z,7.96
2019-04-22T03:14:13.152Z,7.96
2019-04-22T03:15:29.942Z,7.89
2019-04-22T03:16:26.574Z,7.96
2019-04-22T03:17:17.570Z,8.00
2019-04-22T03:21:38.816Z,7.92
2019-04-22T03:22:16.587Z,7.91
2019-04-22T03:23:25.511Z,7.91
2019-04-22T03:24:20.482Z,7.89
2019-04-22T03:26:27.001Z,7.81
2019-04-22T03:27:16.310Z,7.86
2019-04-22T03:28:23.705Z,7.94
2019-04-22T03:29:12.558Z,7.91
2019-04-22T03:31:34.182Z,7.85
2019-04-22T03:36:58.289Z,7.73
2019-04-22T03:37:35.708Z,7.74
2019-04-22T03:38:28.613Z,7.74
2019-04-22T03:39:38.065Z,7.70
2019-04-22T03:40:34.627Z,7.77
2019-04-22T03:41:28.880Z,7.79
2019-04-22T03:42:25.344Z,7.77
2019-04-22T03:43:46.548Z,7.77
2019-04-22T03:46:21.536Z,7.81
2019-04-22T03:47:27.930Z,7.74
2019-04-22T03:49:07.256Z,7.74
2019-04-22T03:50:25.395Z,7.76
2019-04-22T03:51:22.315Z,7.69
2019-04-22T03:53:24.822Z,7.66
2019-04-22T03:54:29.230Z,7.60
2019-04-22T03:55:23.106Z,7.66
2019-04-22T03:56:59.135Z,7.67
2019-04-22T03:57:40.508Z,7.52
2019-04-22T03:58:15.638Z,7.52
2019-04-22T04:01:34.219Z,7.54
2019-04-22T04:03:11.641Z,7.57
2019-04-22T04:03:52.779Z,7.54
2019-04-22T04:05:33.601Z,7.55
2019-04-22T04:08:15.110Z,7.54
2019-04-22T04:08:59.261Z,7.57
2019-04-22T04:10:08.084Z,7.60
2019-04-22T04:11:24.782Z,7.52
2019-04-22T04:11:59.237Z,7.52
2019-04-22T04:13:02.879Z,7.54
2019-04-22T04:14:00.856Z,7.55
2019-04-22T04:15:05.433Z,7.42
2019-04-22T04:15:55.579Z,7.45
2019-04-22T04:17:55.011Z,7.52
2019-04-22T04:21:12.675Z,7.39
2019-04-22T04:22:46.495Z,7.36
2019-04-22T04:24:19.836Z,7.47
2019-04-22T04:26:26.730Z,7.44
2019-04-22T04:27:50.869Z,7.44
2019-04-22T04:29:22.996Z,7.41
2019-04-22T04:33:05.121Z,7.55
2019-04-22T04:34:50.142Z,7.55
2019-04-22T04:37:14.194Z,7.52
2019-04-22T04:37:56.196Z,7.41
2019-04-22T04:41:01.924Z,7.52
2019-04-22T04:42:18.736Z,7.55
2019-04-22T04:42:54.531Z,7.50
2019-04-22T04:44:10.827Z,7.51
2019-04-22T04:46:07.317Z,7.52
2019-04-22T04:47:11.571Z,7.66
2019-04-22T04:48:00.816Z,7.62
2019-04-22T04:49:09.607Z,7.51
2019-04-22T04:50:09.776Z,7.70
2019-04-22T04:52:08.200Z,7.63
2019-04-22T04:56:36.453Z,7.52
2019-04-22T04:57:43.550Z,7.52
2019-04-22T04:58:46.592Z,7.48
2019-04-22T05:00:30.619Z,7.57
2019-04-22T05:00:48.994Z,7.60
2019-04-22T05:01:37.458Z,7.54
2019-04-22T05:04:48.117Z,7.52
2019-04-22T05:05:31.511Z,7.54
2019-04-22T05:06:42.910Z,7.54
2019-04-22T05:08:54.716Z,7.62
2019-04-22T05:09:55.024Z,7.62
2019-04-22T05:10:53.853Z,7.70
2019-04-22T05:12:56.962Z,7.69
2019-04-22T05:13:39.699Z,7.66
2019-04-22T05:14:38.448Z,7.63
2019-04-22T05:15:34.778Z,7.70
2019-04-22T05:16:54.046Z,7.74
2019-04-22T05:18:12.614Z,7.76
2019-04-22T05:18:37.310Z,7.77
2019-04-22T05:19:56.682Z,7.76
2019-04-22T05:20:44.795Z,7.82
2019-04-22T05:22:43.122Z,7.89
2019-04-22T05:25:57.934Z,7.94
2019-04-22T05:26:32.869Z,7.95
2019-04-22T05:27:36.357Z,8.04
2019-04-22T05:28:39.739Z,8.07
2019-04-22T05:29:36.071Z,8.06
2019-04-22T05:30:58.972Z,8.14
2019-04-22T05:31:39.001Z,8.17
2019-04-22T05:34:28.123Z,8.27
2019-04-22T05:35:10.536Z,8.25
2019-04-22T05:36:10.173Z,8.24
2019-04-22T05:37:10.704Z,8.27
2019-04-22T05:38:09.667Z,8.37
2019-04-22T05:39:06.044Z,8.42
2019-04-22T05:41:41.495Z,8.63
2019-04-22T05:42:34.483Z,8.68
2019-04-22T05:43:40.752Z,8.73
2019-04-22T05:44:42.475Z,8.76
2019-04-22T05:45:50.946Z,8.89
2019-04-22T05:48:14.445Z,8.91
2019-04-22T05:49:13.445Z,8.93
2019-04-22T05:50:07.827Z,8.98
2019-04-22T05:51:18.051Z,8.96
2019-04-22T05:52:10.941Z,9.10
2019-04-22T05:53:27.666Z,9.13
2019-04-22T05:54:14.762Z,9.12
2019-04-22T05:55:35.851Z,9.08
2019-04-22T05:56:51.479Z,9.30
2019-04-22T05:59:07.324Z,9.31
2019-04-22T05:59:50.237Z,9.42
2019-04-22T06:01:21.408Z,9.38
2019-04-22T06:03:15.247Z,9.68
2019-04-22T06:04:15.146Z,9.62
2019-04-22T06:05:21.405Z,9.81
2019-04-22T06:06:25.657Z,9.81
2019-04-22T06:07:26.585Z,9.99
2019-04-22T06:08:19.805Z,10.04
2019-04-22T06:10:45.364Z,10.22
2019-04-22T06:11:29.088Z,10.20
2019-04-22T06:12:12.549Z,10.26
2019-04-22T06:13:18.189Z,10.32
2019-04-22T06:14:18.735Z,10.34
2019-04-22T06:15:20.741Z,10.44
2019-04-22T06:16:18.235Z,10.55
2019-04-22T06:17:24.825Z,10.65
2019-04-22T06:18:22.815Z,10.68
2019-04-22T06:19:39.986Z,10.70
2019-04-22T06:20:30.027Z,10.94
2019-04-22T06:21:20.252Z,10.93
2019-04-22T06:22:35.584Z,11.02
2019-04-22T06:23:26.152Z,11.19
2019-04-22T06:24:53.614Z,11.17
2019-04-22T06:25:27.513Z,11.35
2019-04-22T06:26:30.943Z,11.36
2019-04-22T06:27:31.327Z,11.48
2019-04-22T06:28:31.855Z,11.56
2019-04-22T06:29:25.049Z,11.64
2019-04-22T06:30:21.811Z,11.74
2019-04-22T06:31:26.710Z,11.77
2019-04-22T06:32:28.102Z,11.96
2019-04-22T06:33:22.566Z,12.12
2019-04-22T06:34:22.297Z,12.11
2019-04-22T06:35:50.622Z,12.34
2019-04-22T06:36:44.181Z,12.55
2019-04-22T06:37:27.980Z,12.66
2019-04-22T06:39:30.842Z,12.87
2019-04-22T06:40:46.967Z,12.98
2019-04-22T06:41:27.363Z,13.17
2019-04-22T06:42:21.844Z,13.27
2019-04-22T06:43:26.292Z,13.47
2019-04-22T06:44:26.014Z,13.50
2019-04-22T06:45:41.523Z,13.61
2019-04-22T06:46:29.998Z,13.80
2019-04-22T06:47:42.635Z,13.94
2019-04-22T06:48:23.756Z,14.02
2019-04-22T06:50:33.939Z,14.19
2019-04-22T06:51:30.955Z,14.38
2019-04-22T06:52:22.301Z,14.48
2019-04-22T06:53:23.692Z,14.54
2019-04-22T06:54:28.315Z,14.60
2019-04-22T06:55:31.335Z,14.79
2019-04-22T06:56:22.054Z,14.82
2019-04-22T06:57:25.967Z,14.85
2019-04-22T06:58:33.379Z,15.01
2019-04-22T06:59:26.250Z,15.09
2019-04-22T07:00:29.377Z,15.16
2019-04-22T07:02:39.017Z,15.27
2019-04-22T07:04:03.155Z,15.40
2019-04-22T07:04:23.149Z,15.34
2019-04-22T07:05:27.997Z,15.51
2019-04-22T07:06:34.958Z,15.52
2019-04-22T07:07:24.147Z,15.55
2019-04-22T07:09:02.343Z,15.73
2019-04-22T07:10:00.007Z,15.73
2019-04-22T07:10:43.665Z,15.89
2019-04-22T07:11:26.601Z,15.85
2019-04-22T07:12:29.756Z,15.96
2019-04-22T07:13:55.292Z,16.03
2019-04-22T07:14:22.360Z,16.23
2019-04-22T07:16:32.015Z,16.48
2019-04-22T07:17:30.941Z,16.52
2019-04-22T07:18:45.326Z,16.55
2019-04-22T07:19:27.899Z,16.63
2019-04-22T07:20:31.564Z,16.77
2019-04-22T07:21:50.398Z,16.87
2019-04-22T07:22:51.467Z,16.99
2019-04-22T07:23:31.989Z,17.05
2019-04-22T07:25:58.204Z,17.02
2019-04-22T07:26:55.590Z,17.17
2019-04-22T07:28:49.021Z,17.14
2019-04-22T07:29:46.654Z,17.32
2019-04-22T07:34:59.256Z,17.53
2019-04-22T07:35:51.246Z,17.62
2019-04-22T07:36:59.002Z,17.60
2019-04-22T07:37:43.528Z,17.58
2019-04-22T07:38:35.963Z,17.60
2019-04-22T07:39:58.352Z,17.63
2019-04-22T07:40:43.868Z,17.58
2019-04-22T07:41:55.939Z,17.60
2019-04-22T07:42:45.113Z,17.60
2019-04-22T07:44:45.306Z,17.53
2019-04-22T07:45:44.013Z,17.71
2019-04-22T07:47:46.555Z,17.94
2019-04-22T07:48:44.825Z,18.10
2019-04-22T07:49:43.830Z,18.23
2019-04-22T07:52:41.439Z,18.42
2019-04-22T07:53:33.799Z,18.41
2019-04-22T07:55:13.329Z,18.35
2019-04-22T07:55:39.670Z,18.44
2019-04-22T07:56:47.073Z,18.51
2019-04-22T07:57:50.672Z,18.56
2019-04-22T07:58:43.579Z,18.72
2019-04-22T07:59:54.187Z,18.79
2019-04-22T08:00:38.723Z,18.72
2019-04-22T08:02:02.103Z,18.72
2019-04-22T08:03:07.311Z,18.76
2019-04-22T08:03:51.268Z,18.87
2019-04-22T08:05:04.009Z,18.86
2019-04-22T08:05:51.926Z,18.97
2019-04-22T08:07:05.159Z,19.02
2019-04-22T08:07:45.393Z,19.17
2019-04-22T08:08:45.702Z,19.34
2019-04-22T08:09:58.073Z,19.43
2019-04-22T08:10:48.479Z,19.50
2019-04-22T08:11:51.230Z,19.57
2019-04-22T08:12:47.397Z,19.60
2019-04-22T08:13:40.671Z,19.65
2019-04-22T08:14:49.927Z,19.70
2019-04-22T08:15:48.546Z,19.83
2019-04-22T08:17:32.423Z,19.86
2019-04-22T08:17:59.887Z,19.89
2019-04-22T08:18:52.669Z,19.98
2019-04-22T08:19:50.566Z,19.95
2019-04-22T08:20:47.172Z,20.01
2019-04-22T08:23:25.947Z,20.22
2019-04-22T08:24:22.787Z,20.30
2019-04-22T08:25:16.483Z,20.37
2019-04-22T08:26:25.931Z,20.40
2019-04-22T08:27:23.798Z,20.54
2019-04-22T08:28:26.640Z,20.68
2019-04-22T08:29:25.462Z,20.57
2019-04-22T08:30:29.866Z,20.50
2019-04-22T08:32:22.392Z,20.41
2019-04-22T08:33:29.473Z,20.44
2019-04-22T08:35:29.583Z,20.34
2019-04-22T08:36:26.113Z,20.30
2019-04-22T08:38:33.748Z,20.57
2019-04-22T08:41:29.108Z,20.58
2019-04-22T08:41:51.275Z,20.50
2019-04-22T08:43:11.487Z,20.56
2019-04-22T08:44:10.518Z,20.68
2019-04-22T08:45:09.515Z,20.71
2019-04-22T08:45:57.103Z,20.83
2019-04-22T08:47:07.142Z,20.96
2019-04-22T08:47:59.152Z,20.91
2019-04-22T08:51:00.606Z,21.03
2019-04-22T08:52:04.969Z,20.85
2019-04-22T08:53:02.122Z,20.96
2019-04-22T08:54:07.810Z,21.09
2019-04-22T08:55:08.593Z,21.12
2019-04-22T08:56:04.629Z,21.22
2019-04-22T08:57:01.870Z,21.28
2019-04-22T08:58:16.810Z,21.43
2019-04-22T08:59:06.951Z,21.48
2019-04-22T09:00:02.410Z,21.51
2019-04-22T09:01:06.478Z,21.48
2019-04-22T09:02:04.152Z,21.58
2019-04-22T09:03:02.238Z,21.49
2019-04-22T09:04:02.642Z,21.31
2019-04-22T09:05:10.663Z,21.31
2019-04-22T09:06:06.437Z,21.27
2019-04-22T09:07:18.413Z,21.18
2019-04-22T09:08:09.334Z,21.11
2019-04-22T09:09:00.836Z,21.24
2019-04-22T09:10:02.010Z,21.30
2019-04-22T09:11:11.285Z,21.49
2019-04-22T09:12:08.404Z,21.56
2019-04-22T09:14:08.921Z,21.63
2019-04-22T09:14:55.300Z,21.86
2019-04-22T09:16:05.335Z,21.94
2019-04-22T09:17:13.311Z,22.02
2019-04-22T09:18:08.387Z,22.17
2019-04-22T09:19:01.993Z,22.08
2019-04-22T09:20:00.323Z,21.89
2019-04-22T09:21:15.326Z,21.73
2019-04-22T09:22:08.351Z,21.68
2019-04-22T09:23:09.328Z,21.81
2019-04-22T09:24:16.742Z,21.94
2019-04-22T09:25:03.805Z,21.74
2019-04-22T09:26:01.397Z,21.66
2019-04-22T09:27:04.141Z,21.58
2019-04-22T09:28:42.404Z,21.53
2019-04-22T09:29:08.126Z,21.56
2019-04-22T09:30:06.125Z,21.58
2019-04-22T09:31:06.458Z,21.59
2019-04-22T09:32:05.320Z,21.34
2019-04-22T09:33:09.953Z,21.48
2019-04-22T09:34:12.152Z,21.58
2019-04-22T09:35:03.418Z,21.58
2019-04-22T09:36:12.735Z,21.75
2019-04-22T09:37:11.952Z,21.75
2019-04-22T09:38:20.747Z,21.66
2019-04-22T09:39:09.253Z,21.79
2019-04-22T09:40:14.043Z,21.83
2019-04-22T09:41:05.387Z,21.91
2019-04-22T09:42:05.021Z,21.94
2019-04-22T09:43:05.067Z,21.94
2019-04-22T09:44:21.796Z,21.86
2019-04-22T09:45:07.149Z,22.02
2019-04-22T09:46:08.586Z,21.98
2019-04-22T09:47:07.344Z,21.99
2019-04-22T09:48:09.023Z,22.04
2019-04-22T09:49:12.152Z,21.93
2019-04-22T09:50:26.051Z,21.99
2019-04-22T09:51:05.855Z,21.83
2019-04-22T09:52:11.602Z,21.79
2019-04-22T09:53:08.436Z,21.99
2019-04-22T09:55:24.349Z,22.12
2019-04-22T09:56:13.677Z,22.39
2019-04-22T09:57:10.964Z,22.51
2019-04-22T10:00:07.750Z,22.52
2019-04-22T10:00:43.049Z,22.51
2019-04-22T10:02:18.321Z,22.64
2019-04-22T10:03:00.834Z,22.66
2019-04-22T10:05:17.365Z,22.76
2019-04-22T10:06:22.306Z,22.72
2019-04-22T10:07:19.022Z,22.70
2019-04-22T10:10:12.388Z,22.84
2019-04-22T10:10:46.505Z,22.76
2019-04-22T10:11:55.273Z,22.86
2019-04-22T10:12:46.731Z,22.86
2019-04-22T10:13:49.100Z,22.84
2019-04-22T10:14:47.992Z,22.88
2019-04-22T10:15:48.100Z,22.69
2019-04-22T10:17:03.252Z,22.56
2019-04-22T10:18:02.878Z,22.49
2019-04-22T10:19:04.626Z,22.66
2019-04-22T10:19:41.010Z,22.79
2019-04-22T10:20:47.659Z,22.93
2019-04-22T10:21:52.695Z,23.04
2019-04-22T10:23:16.959Z,23.07
2019-04-22T10:23:45.453Z,23.11
2019-04-22T10:24:45.356Z,23.06
2019-04-22T10:26:07.620Z,23.16
2019-04-22T10:26:46.963Z,23.16
2019-04-22T10:27:53.602Z,23.14
2019-04-22T10:28:44.540Z,23.21
2019-04-22T10:29:47.031Z,23.32
2019-04-22T10:30:50.073Z,23.45
2019-04-22T10:31:43.635Z,23.32
2019-04-22T10:33:08.810Z,23.38
2019-04-22T10:33:38.220Z,23.47
2019-04-22T10:34:28.874Z,23.47
2019-04-22T10:35:23.604Z,23.38
2019-04-22T10:36:21.443Z,23.47
2019-04-22T10:37:42.702Z,23.42
2019-04-22T10:38:24.161Z,23.47
2019-04-22T10:39:23.897Z,23.53
2019-04-22T10:40:21.636Z,23.54
2019-04-22T10:41:20.948Z,23.52
2019-04-22T10:42:20.953Z,23.49
2019-04-22T10:43:21.165Z,23.45
2019-04-22T10:44:24.945Z,23.52
2019-04-22T10:45:21.961Z,23.53
2019-04-22T10:46:22.187Z,23.53
2019-04-22T10:47:22.320Z,23.57
2019-04-22T10:48:22.090Z,23.44
2019-04-22T10:49:46.625Z,23.45
2019-04-22T10:50:22.685Z,23.38
2019-04-22T10:51:22.351Z,23.52
2019-04-22T10:52:43.575Z,23.45
2019-04-22T10:53:23.743Z,23.52
2019-04-22T10:54:23.362Z,23.45
2019-04-22T10:55:29.541Z,23.53
2019-04-22T10:56:23.080Z,23.52
2019-04-22T10:57:22.943Z,23.75
2019-04-22T10:58:23.106Z,23.90
2019-04-22T10:59:22.945Z,23.87
2019-04-22T11:00:27.445Z,23.60
2019-04-22T11:01:23.448Z,23.53
2019-04-22T11:02:45.694Z,23.60
2019-04-22T11:03:24.529Z,23.74
2019-04-22T11:04:23.949Z,23.68
2019-04-22T11:05:24.117Z,23.77
2019-04-22T11:08:03.168Z,23.97
2019-04-22T11:09:03.157Z,23.96
2019-04-22T11:10:17.541Z,24.02
2019-04-22T11:11:10.872Z,23.93
2019-04-22T11:12:11.205Z,23.68
2019-04-22T11:12:59.596Z,23.53
2019-04-22T11:14:00.101Z,23.72
2019-04-22T11:15:00.128Z,23.71
2019-04-22T11:16:00.543Z,23.84
2019-04-22T11:17:02.230Z,23.96
2019-04-22T11:18:25.372Z,23.97
2019-04-22T11:19:21.428Z,24.09
2019-04-22T11:20:21.789Z,24.04
2019-04-22T11:21:00.285Z,24.04
2019-04-22T11:22:09.687Z,24.06
2019-04-22T11:23:00.791Z,23.96
2019-04-22T11:24:04.911Z,23.87
2019-04-22T11:25:01.273Z,23.89
2019-04-22T11:26:01.777Z,23.86
2019-04-22T11:27:01.290Z,23.64
2019-04-22T11:28:01.927Z,23.77
2019-04-22T11:29:27.805Z,23.89
2019-04-22T11:30:24.689Z,24.12
2019-04-22T11:32:33.992Z,24.93
2019-04-22T11:33:34.383Z,25.17
2019-04-22T11:34:37.560Z,25.05
2019-04-22T11:35:34.049Z,25.09
2019-04-22T11:36:34.582Z,25.24
2019-04-22T11:37:34.772Z,25.67
2019-04-22T11:38:37.731Z,25.56
2019-04-22T11:40:09.162Z,25.30
2019-04-22T11:40:39.905Z,25.49
2019-04-22T11:41:34.059Z,25.78
2019-04-22T11:42:34.357Z,26.19
2019-04-22T11:43:36.158Z,26.96
2019-04-22T11:44:35.312Z,27.39
2019-04-22T11:45:39.449Z,26.88
2019-04-22T11:46:35.619Z,26.64
2019-04-22T11:47:35.382Z,26.90
2019-04-22T11:48:35.935Z,27.09
2019-04-22T11:49:36.217Z,27.84
2019-04-22T11:50:40.045Z,28.08
2019-04-22T11:51:36.081Z,28.50
2019-04-22T11:52:37.147Z,28.48
2019-04-22T11:53:36.622Z,28.48
2019-04-22T11:54:36.807Z,28.33
2019-04-22T11:55:37.001Z,28.45
2019-04-22T11:57:01.205Z,28.33
2019-04-22T11:57:37.159Z,28.46
2019-04-22T11:58:37.223Z,28.40
2019-04-22T11:59:36.564Z,28.57
2019-04-22T12:00:36.983Z,28.91
2019-04-22T12:01:37.168Z,29.30
2019-04-22T12:03:01.060Z,29.02
2019-04-22T12:05:09.946Z,28.73
2019-04-22T12:06:08.533Z,28.72
2019-04-22T12:07:32.704Z,28.60
2019-04-22T12:08:13.092Z,28.57
2019-04-22T12:09:10.094Z,28.55
2019-04-22T12:10:17.822Z,28.82
2019-04-22T12:11:09.792Z,29.17
2019-04-22T12:12:34.609Z,29.11
2019-04-22T12:14:45.773Z,28.82
2019-04-22T12:15:44.936Z,29.41
2019-04-22T12:16:45.437Z,29.48
2019-04-22T12:17:46.210Z,29.07
2019-04-22T12:18:49.319Z,29.58
2019-04-22T12:19:46.272Z,29.48
2019-04-22T12:20:45.404Z,30.10
2019-04-22T12:21:45.184Z,30.42
2019-04-22T12:22:45.181Z,30.44
2019-04-22T12:23:45.262Z,30.57
2019-04-22T12:24:52.446Z,31.05
2019-04-22T12:25:52.530Z,30.70
2019-04-22T12:26:46.381Z,30.00
2019-04-22T12:27:45.682Z,30.00
2019-04-22T12:28:46.802Z,30.21
2019-04-22T12:29:47.069Z,30.28
2019-04-22T12:30:51.153Z,30.28
2019-04-22T12:31:47.256Z,29.99
2019-04-22T12:32:46.182Z,30.07
2019-04-22T12:33:47.647Z,30.21
2019-04-22T12:34:47.122Z,30.19
2019-04-22T12:35:50.549Z,30.22
2019-04-22T12:36:46.875Z,30.51
2019-04-22T12:37:53.413Z,30.11
2019-04-22T12:38:47.605Z,29.84
2019-04-22T12:39:47.793Z,29.20
2019-04-22T12:40:56.542Z,29.49
2019-04-22T12:41:46.798Z,29.86
2019-04-22T12:42:49.058Z,29.49
2019-04-22T12:43:49.156Z,29.48
2019-04-22T12:44:49.136Z,30.13
2019-04-22T12:45:52.240Z,30.29
2019-04-22T12:48:41.259Z,30.96
2019-04-22T12:49:42.386Z,30.83
2019-04-22T12:50:43.837Z,30.53
2019-04-22T12:51:24.891Z,30.07
2019-04-22T12:52:47.836Z,29.41
2019-04-22T12:53:21.949Z,29.23
2019-04-22T12:54:21.423Z,29.54
2019-04-22T12:55:42.016Z,29.95
2019-04-22T12:56:23.883Z,30.08
2019-04-22T12:57:20.752Z,30.13
2019-04-22T12:58:20.592Z,30.60
2019-04-22T12:59:21.496Z,30.28
2019-04-22T13:00:22.406Z,30.56
2019-04-22T13:01:24.750Z,30.79
2019-04-22T13:02:21.088Z,30.70
2019-04-22T13:03:22.321Z,30.67
2019-04-22T13:04:23.320Z,30.96
2019-04-22T13:05:22.827Z,31.10
2019-04-22T13:06:21.758Z,31.03
2019-04-22T13:07:25.981Z,31.22
2019-04-22T13:08:43.547Z,31.34
2019-04-22T13:09:23.096Z,31.28
2019-04-22T13:10:53.346Z,31.56
2019-04-22T13:11:28.766Z,31.64
2019-04-22T13:12:47.137Z,31.50
2019-04-22T13:13:23.046Z,31.38
2019-04-22T13:14:23.192Z,31.57
2019-04-22T13:15:46.797Z,31.56
2019-04-22T13:16:47.238Z,30.79
2019-04-22T13:17:23.199Z,30.85
2019-04-22T13:18:35.479Z,30.78
2019-04-22T13:19:26.509Z,30.59
2019-04-22T13:20:24.329Z,30.23
2019-04-22T13:21:44.868Z,30.91
2019-04-22T13:22:45.017Z,31.07
2019-04-22T13:23:48.921Z,30.64
2019-04-22T13:24:25.971Z,30.96
2019-04-22T13:25:27.984Z,30.86
2019-04-22T13:26:25.416Z,30.85
2019-04-22T13:27:24.840Z,31.22
2019-04-22T13:28:27.261Z,30.98
2019-04-22T13:29:30.979Z,31.16
2019-04-22T13:30:26.175Z,31.03
2019-04-22T13:31:26.723Z,30.11
2019-04-22T13:32:25.128Z,29.20
2019-04-22T13:33:25.098Z,29.20
2019-04-22T13:34:32.889Z,29.48
2019-04-22T13:35:29.797Z,30.21
2019-04-22T13:36:27.745Z,29.88
2019-04-22T13:37:25.602Z,29.60
2019-04-22T13:38:26.909Z,29.94
2019-04-22T13:39:27.126Z,30.10
2019-04-22T13:40:26.087Z,30.38
2019-04-22T13:41:39.764Z,30.53
2019-04-22T13:42:27.557Z,30.97
2019-04-22T13:43:27.013Z,30.53
2019-04-22T13:44:27.997Z,30.94
2019-04-22T13:45:27.628Z,30.88
2019-04-22T13:46:30.955Z,31.13
2019-04-22T13:47:49.140Z,30.97
2019-04-22T13:48:46.501Z,30.97
2019-04-22T13:50:03.059Z,30.79
2019-04-22T13:50:56.309Z,30.73
2019-04-22T13:54:36.388Z,30.70
2019-04-22T13:55:11.329Z,31.10
2019-04-22T13:55:56.918Z,31.37
2019-04-22T13:57:03.350Z,30.70
2019-04-22T13:57:47.471Z,30.49
2019-04-22T14:00:24.915Z,29.76
2019-04-22T14:01:24.850Z,29.44
2019-04-22T14:02:04.282Z,29.11
2019-04-22T14:03:26.543Z,29.21
2019-04-22T14:04:07.179Z,29.21
2019-04-22T14:05:24.598Z,29.57
2019-04-22T14:06:04.763Z,29.62
2019-04-22T14:07:25.146Z,29.60
2019-04-22T14:08:04.943Z,29.41
2019-04-22T14:09:28.446Z,29.49
2019-04-22T14:10:04.414Z,29.49
2019-04-22T14:11:34.113Z,29.36
2019-04-22T14:12:26.577Z,29.41
2019-04-22T14:13:25.886Z,29.29
2019-04-22T14:14:05.088Z,29.26
2019-04-22T14:15:31.953Z,29.45
2019-04-22T14:16:06.932Z,29.55
2019-04-22T14:17:27.097Z,29.07
2019-04-22T14:18:07.225Z,28.39
2019-04-22T14:19:27.770Z,28.61
2019-04-22T14:21:43.703Z,28.61
2019-04-22T14:22:40.856Z,28.62
2019-04-22T14:23:40.812Z,28.70
2019-04-22T14:26:17.471Z,28.69
2019-04-22T14:27:46.894Z,28.36
2019-04-22T14:28:17.357Z,28.46
2019-04-22T14:29:35.554Z,28.24
2019-04-22T14:30:34.670Z,27.55
2019-04-22T14:31:38.353Z,27.81
2019-04-22T14:32:18.836Z,27.49
2019-04-22T14:33:34.594Z,27.62
2019-04-22T14:34:15.122Z,27.91
2019-04-22T14:35:13.594Z,27.68
2019-04-22T14:36:15.126Z,27.80
2019-04-22T14:37:38.524Z,27.74
2019-04-22T14:38:16.210Z,27.68
2019-04-22T14:39:15.578Z,27.38
2019-04-22T14:40:16.013Z,27.30
2019-04-22T14:41:35.717Z,26.49
2019-04-22T14:42:36.420Z,26.21
2019-04-22T14:43:46.263Z,26.17
2019-04-22T14:45:50.243Z,25.82
2019-04-22T14:46:39.193Z,25.78
2019-04-22T14:48:07.758Z,25.76
2019-04-22T14:48:45.042Z,25.56
2019-04-22T14:49:38.596Z,25.14
2019-04-22T14:50:35.226Z,25.01
2019-04-22T14:51:59.084Z,24.90
2019-04-22T14:52:42.796Z,24.64
2019-04-22T14:53:41.530Z,24.60
2019-04-22T14:54:49.266Z,24.64
2019-04-22T14:55:23.162Z,24.61
2019-04-22T14:56:38.287Z,24.67
2019-04-22T14:57:38.350Z,24.60
2019-04-22T14:59:53.673Z,24.49
2019-04-22T15:02:46.041Z,24.24
2019-04-22T15:03:24.197Z,24.21